Ilulissat

KL  EN  DA
ASIAQ
Weather Now GREENLAND SURVEY
Updated [WGT/WGST] Temperature [°C] Wind [m/s] Air pressure [hPa] Relative humidity [%] Precipitation [mm]
Present Wind chill Speed Max
27.09 01:00-6,7-10,82,4 ⇘3,61019n/an/a
27.09 00:00-5,6-12,25,5 ⇐7,91019460,0
26.09 23:00-6,7-11,53,0 ⇐4,31019530,0
26.09 22:00-7,2-11,92,8 ⇐3,61018490,0
26.09 21:00-6,7-9,81,7 ⇐2,51018500,0
26.09 20:00-6,1-12,65,1 ⇐6,41018500,0
26.09 19:00-5,6-10,53,3 ⇖4,81017540,0
26.09 18:00-5,60,01,3 ⇘2,61017470,0
26.09 17:00-5,6-10,43,2 ⇖5,01017490,0
26.09 16:00-5,0-10,64,2 ⇐5,01016490,0
26.09 15:00-5,0-8,42,1 ⇓3,61016500,0
26.09 14:00-5,6-9,52,4 ⇘3,61016540,0
26.09 13:00-5,6-9,42,3 ⇙3,21017520,0
26.09 12:00-5,6-10,23,0 ⇐4,41017480,0
26.09 11:00-6,7-10,42,1 ⇐4,41017500,0
26.09 10:00-6,7-12,03,4 ⇙4,81017540,0
26.09 09:00-7,8-10,61,5 ⇙3,31017580,0
26.09 08:00n/an/an/an/an/a620,0
26.09 07:00-8,9-11,71,4 ⇖2,21017620,0
26.09 06:00-8,3-13,73,2 ⇐4,21017620,0
26.09 05:00-8,3-12,72,4 ⇐3,21017660,0
26.09 04:00-8,3-14,74,2 ⇐5,11017650,0
26.09 03:00-8,90,01,1 ⇖2,11017640,0
26.09 02:00-8,9-15,03,8 ⇐4,41017640,0
26.09 01:00-8,30,01,0 ⇐1,51017680,0
Position: (69.2402777777,-51.06611111)

[Back]